sensor_id;sensor_type;location;lat;lon;timestamp;pressure;altitude;pressure_sealevel;temperature;humidity
12722;BME280;6425;50.316;8.114;2023-07-13T00:00:00;990;;;19.1;51.8
12722;BME280;6425;50.316;8.114;2023-07-13T00:03:00;990;;;19.3;52.2
12722;BME280;6425;50.316;8.114;2023-07-13T00:06:00;990;;;19;52.9
12722;BME280;6425;50.316;8.114;2023-07-13T00:09:00;990;;;18.5;54.3
12722;BME280;6425;50.316;8.114;2023-07-13T00:12:00;990;;;18.6;54.2
12722;BME280;6425;50.316;8.114;2023-07-13T00:15:00;990;;;18.9;53.9
12722;BME280;6425;50.316;8.114;2023-07-13T00:18:00;990;;;19;53.7
12722;BME280;6425;50.316;8.114;2023-07-13T00:21:00;990;;;18.9;53
12722;BME280;6425;50.316;8.114;2023-07-13T00:24:00;990;;;18.5;54.3
12722;BME280;6425;50.316;8.114;2023-07-13T00:27:00;990;;;18.4;54.4
12722;BME280;6425;50.316;8.114;2023-07-13T00:30:00;990;;;18;55.1
12722;BME280;6425;50.316;8.114;2023-07-13T00:33:00;990;;;18.4;55.2
12722;BME280;6425;50.316;8.114;2023-07-13T00:36:00;990;;;18.8;54.4
12722;BME280;6425;50.316;8.114;2023-07-13T00:39:00;990;;;18.9;54.1
12722;BME280;6425;50.316;8.114;2023-07-13T00:42:00;990;;;19;54
12722;BME280;6425;50.316;8.114;2023-07-13T00:45:02;990;;;18.9;54.7
12722;BME280;6425;50.316;8.114;2023-07-13T00:48:00;990;;;18.4;55.9
12722;BME280;6425;50.316;8.114;2023-07-13T00:51:00;990;;;18;57.2
12722;BME280;6425;50.316;8.114;2023-07-13T00:54:00;990;;;17.9;57.4
12722;BME280;6425;50.316;8.114;2023-07-13T00:57:00;990;;;17.8;57.9
12722;BME280;6425;50.316;8.114;2023-07-13T01:00:00;990;;;17.4;58.9
12722;BME280;6425;50.316;8.114;2023-07-13T01:03:00;990;;;17.3;59.5
12722;BME280;6425;50.316;8.114;2023-07-13T01:06:00;990;;;17.2;59.5
12722;BME280;6425;50.316;8.114;2023-07-13T01:09:00;990;;;16.9;60.1
12722;BME280;6425;50.316;8.114;2023-07-13T01:12:00;990;;;17.1;59.8
12722;BME280;6425;50.316;8.114;2023-07-13T01:15:00;990;;;17;59.8
12722;BME280;6425;50.316;8.114;2023-07-13T01:18:00;990;;;16.5;61.2
12722;BME280;6425;50.316;8.114;2023-07-13T01:21:00;990;;;16.4;62
12722;BME280;6425;50.316;8.114;2023-07-13T01:24:00;990;;;16.3;62
12722;BME280;6425;50.316;8.114;2023-07-13T01:27:00;990;;;16.3;61.8
12722;BME280;6425;50.316;8.114;2023-07-13T01:30:00;990;;;16;62.5
12722;BME280;6425;50.316;8.114;2023-07-13T01:33:00;990;;;15.8;63
12722;BME280;6425;50.316;8.114;2023-07-13T01:36:00;990;;;15.7;63.3
12722;BME280;6425;50.316;8.114;2023-07-13T01:39:00;990;;;15.6;64
12722;BME280;6425;50.316;8.114;2023-07-13T01:42:00;990;;;15.7;63.4
12722;BME280;6425;50.316;8.114;2023-07-13T01:45:00;990;;;15.4;64.3
12722;BME280;6425;50.316;8.114;2023-07-13T01:48:00;990;;;14.6;66.5
12722;BME280;6425;50.316;8.114;2023-07-13T01:51:00;990;;;14.4;67.9
12722;BME280;6425;50.316;8.114;2023-07-13T01:54:00;990;;;14.6;67.5
12722;BME280;6425;50.316;8.114;2023-07-13T01:57:00;990;;;14.7;66.8
12722;BME280;6425;50.316;8.114;2023-07-13T02:00:00;990;;;14.7;66.2
12722;BME280;6425;50.316;8.114;2023-07-13T02:03:00;990;;;14.6;66.8
12722;BME280;6425;50.316;8.114;2023-07-13T02:06:00;990;;;14.6;67
12722;BME280;6425;50.316;8.114;2023-07-13T02:09:00;990;;;14.9;66.1
12722;BME280;6425;50.316;8.114;2023-07-13T02:12:00;990;;;14.7;66.9
12722;BME280;6425;50.316;8.114;2023-07-13T02:15:00;990;;;14.8;66.3
12722;BME280;6425;50.316;8.114;2023-07-13T02:18:00;990;;;14.8;66.1
12722;BME280;6425;50.316;8.114;2023-07-13T02:21:00;990;;;14.7;66.2
12722;BME280;6425;50.316;8.114;2023-07-13T02:24:00;990;;;14.6;66.8
12722;BME280;6425;50.316;8.114;2023-07-13T02:27:00;990;;;14.6;66.8
12722;BME280;6425;50.316;8.114;2023-07-13T02:30:00;990;;;14.4;67
12722;BME280;6425;50.316;8.114;2023-07-13T02:33:00;990;;;14;68
12722;BME280;6425;50.316;8.114;2023-07-13T02:36:00;990;;;13.9;68.8
12722;BME280;6425;50.316;8.114;2023-07-13T02:39:00;990;;;13.6;69.9
12722;BME280;6425;50.316;8.114;2023-07-13T02:42:00;990;;;13.8;69.7
12722;BME280;6425;50.316;8.114;2023-07-13T02:45:00;990;;;14.1;68.4
12722;BME280;6425;50.316;8.114;2023-07-13T02:48:00;990;;;13.6;69.6
12722;BME280;6425;50.316;8.114;2023-07-13T02:51:01;990;;;13.7;69.6
12722;BME280;6425;50.316;8.114;2023-07-13T02:54:00;990;;;13.9;68.9
12722;BME280;6425;50.316;8.114;2023-07-13T02:57:00;990;;;14;69
12722;BME280;6425;50.316;8.114;2023-07-13T03:00:00;990;;;14.1;68.2
12722;BME280;6425;50.316;8.114;2023-07-13T03:03:00;990;;;13.9;69
12722;BME280;6425;50.316;8.114;2023-07-13T03:06:00;990;;;14.1;68.6
12722;BME280;6425;50.316;8.114;2023-07-13T03:09:00;990;;;14.3;68
12722;BME280;6425;50.316;8.114;2023-07-13T03:12:00;990;;;14.4;67.3
12722;BME280;6425;50.316;8.114;2023-07-13T03:15:00;990;;;14.5;67.3
12722;BME280;6425;50.316;8.114;2023-07-13T03:18:00;990;;;14.5;67
12722;BME280;6425;50.316;8.114;2023-07-13T03:21:00;990;;;14.6;66.5
12722;BME280;6425;50.316;8.114;2023-07-13T03:24:00;990;;;14.7;66.1
12722;BME280;6425;50.316;8.114;2023-07-13T03:27:00;990;;;14.5;66.1
12722;BME280;6425;50.316;8.114;2023-07-13T03:30:00;990;;;14.1;66.5
12722;BME280;6425;50.316;8.114;2023-07-13T03:33:00;990;;;14.2;66.5
12722;BME280;6425;50.316;8.114;2023-07-13T03:36:00;990;;;14.4;66
12722;BME280;6425;50.316;8.114;2023-07-13T03:39:00;990;;;14.6;65.4
12722;BME280;6425;50.316;8.114;2023-07-13T03:42:00;990;;;14.8;64.5
12722;BME280;6425;50.316;8.114;2023-07-13T03:45:00;990;;;14.1;65.8
12722;BME280;6425;50.316;8.114;2023-07-13T03:48:00;990;;;13.6;68.1
12722;BME280;6425;50.316;8.114;2023-07-13T03:51:00;990;;;13.7;68.3
12722;BME280;6425;50.316;8.114;2023-07-13T03:54:00;990;;;14;67.2
12722;BME280;6425;50.316;8.114;2023-07-13T03:57:00;990;;;14.1;66.7
12722;BME280;6425;50.316;8.114;2023-07-13T04:00:00;990;;;14.3;66.2
12722;BME280;6425;50.316;8.114;2023-07-13T04:03:00;990;;;14.6;65
12722;BME280;6425;50.316;8.114;2023-07-13T04:06:00;990;;;14.6;65
12722;BME280;6425;50.316;8.114;2023-07-13T04:09:00;990;;;14.5;65
12722;BME280;6425;50.316;8.114;2023-07-13T04:12:00;990;;;14.8;64.3
12722;BME280;6425;50.316;8.114;2023-07-13T04:15:00;990;;;14.9;63.4
12722;BME280;6425;50.316;8.114;2023-07-13T04:18:00;990;;;15.1;62.6
12722;BME280;6425;50.316;8.114;2023-07-13T04:21:00;990;;;15.2;61.9
12722;BME280;6425;50.316;8.114;2023-07-13T04:24:00;991;;;15.6;60.7
12722;BME280;6425;50.316;8.114;2023-07-13T04:27:00;990;;;16;59.6
12722;BME280;6425;50.316;8.114;2023-07-13T04:30:00;990;;;16.6;57.9
12722;BME280;6425;50.316;8.114;2023-07-13T04:33:00;990;;;16.8;56.9
12722;BME280;6425;50.316;8.114;2023-07-13T04:36:00;991;;;17.6;55.1
12722;BME280;6425;50.316;8.114;2023-07-13T04:39:00;991;;;18;53.4
12722;BME280;6425;50.316;8.114;2023-07-13T04:42:00;990;;;18.3;52.6
12722;BME280;6425;50.316;8.114;2023-07-13T04:45:00;990;;;18.3;52.4
12722;BME280;6425;50.316;8.114;2023-07-13T04:48:00;991;;;18.4;52.4
12722;BME280;6425;50.316;8.114;2023-07-13T04:51:00;991;;;18.7;51.7
12722;BME280;6425;50.316;8.114;2023-07-13T04:54:00;991;;;19;50.8
12722;BME280;6425;50.316;8.114;2023-07-13T04:57:00;991;;;18.7;51.5
12722;BME280;6425;50.316;8.114;2023-07-13T05:00:00;991;;;18.5;52.3
12722;BME280;6425;50.316;8.114;2023-07-13T05:03:00;991;;;18.3;53.1
12722;BME280;6425;50.316;8.114;2023-07-13T05:06:02;991;;;17.8;55
12722;BME280;6425;50.316;8.114;2023-07-13T05:09:00;991;;;17.1;57.5
12722;BME280;6425;50.316;8.114;2023-07-13T05:12:00;991;;;16.5;58.6
12722;BME280;6425;50.316;8.114;2023-07-13T05:15:00;991;;;16.5;59.6
12722;BME280;6425;50.316;8.114;2023-07-13T05:18:00;991;;;16.6;59.3
12722;BME280;6425;50.316;8.114;2023-07-13T05:21:01;991;;;16.4;60.3
12722;BME280;6425;50.316;8.114;2023-07-13T05:24:00;991;;;16.5;60.6
12722;BME280;6425;50.316;8.114;2023-07-13T05:27:00;991;;;16.5;60
12722;BME280;6425;50.316;8.114;2023-07-13T05:30:00;991;;;16.5;59.4
12722;BME280;6425;50.316;8.114;2023-07-13T05:33:00;991;;;16.6;59.2
12722;BME280;6425;50.316;8.114;2023-07-13T05:36:00;991;;;16.6;58.9
12722;BME280;6425;50.316;8.114;2023-07-13T05:39:00;991;;;16.8;58.5
12722;BME280;6425;50.316;8.114;2023-07-13T05:42:00;991;;;16.8;58.5
12722;BME280;6425;50.316;8.114;2023-07-13T05:45:00;991;;;16.9;58.2
12722;BME280;6425;50.316;8.114;2023-07-13T05:48:00;991;;;16.9;58.1
12722;BME280;6425;50.316;8.114;2023-07-13T05:51:00;991;;;17.2;57.8
12722;BME280;6425;50.316;8.114;2023-07-13T05:54:00;991;;;17.2;57
12722;BME280;6425;50.316;8.114;2023-07-13T05:57:00;991;;;17.2;57.8
12722;BME280;6425;50.316;8.114;2023-07-13T06:00:00;991;;;17.4;57
12722;BME280;6425;50.316;8.114;2023-07-13T06:03:00;991;;;17.5;56.7
12722;BME280;6425;50.316;8.114;2023-07-13T06:06:00;991;;;17.5;56.1
12722;BME280;6425;50.316;8.114;2023-07-13T06:09:00;991;;;17.3;56.5
12722;BME280;6425;50.316;8.114;2023-07-13T06:12:00;991;;;17.5;56.4
12722;BME280;6425;50.316;8.114;2023-07-13T06:15:00;991;;;17.5;56.5
12722;BME280;6425;50.316;8.114;2023-07-13T06:18:00;991;;;17.6;55.7
12722;BME280;6425;50.316;8.114;2023-07-13T06:21:00;991;;;17.6;56.1
12722;BME280;6425;50.316;8.114;2023-07-13T06:24:00;991;;;17.6;56
12722;BME280;6425;50.316;8.114;2023-07-13T06:27:00;991;;;17.9;55.5
12722;BME280;6425;50.316;8.114;2023-07-13T06:30:00;991;;;17.8;55.3
12722;BME280;6425;50.316;8.114;2023-07-13T06:33:00;991;;;17.9;55.5
12722;BME280;6425;50.316;8.114;2023-07-13T06:36:00;991;;;18.2;55.7
12722;BME280;6425;50.316;8.114;2023-07-13T06:39:00;991;;;18.3;54.5
12722;BME280;6425;50.316;8.114;2023-07-13T06:42:00;991;;;18.2;55
12722;BME280;6425;50.316;8.114;2023-07-13T06:45:00;991;;;18.5;54
12722;BME280;6425;50.316;8.114;2023-07-13T06:48:00;991;;;18.4;53.2
12722;BME280;6425;50.316;8.114;2023-07-13T06:51:01;991;;;18.5;53.4
12722;BME280;6425;50.316;8.114;2023-07-13T06:54:00;991;;;18.6;53.3
12722;BME280;6425;50.316;8.114;2023-07-13T06:57:00;991;;;18.6;52.9
12722;BME280;6425;50.316;8.114;2023-07-13T07:00:00;991;;;18.6;52.9
12722;BME280;6425;50.316;8.114;2023-07-13T07:03:00;991;;;18.8;52.4
12722;BME280;6425;50.316;8.114;2023-07-13T07:06:00;991;;;18.9;51.7
12722;BME280;6425;50.316;8.114;2023-07-13T07:09:00;991;;;18.8;51.5
12722;BME280;6425;50.316;8.114;2023-07-13T07:12:00;991;;;18.7;51.3
12722;BME280;6425;50.316;8.114;2023-07-13T07:15:00;991;;;18.9;51
12722;BME280;6425;50.316;8.114;2023-07-13T07:18:00;991;;;18.8;50.2
12722;BME280;6425;50.316;8.114;2023-07-13T07:21:00;991;;;18.8;51
12722;BME280;6425;50.316;8.114;2023-07-13T07:24:00;991;;;19.1;51
12722;BME280;6425;50.316;8.114;2023-07-13T07:27:00;991;;;19.3;50.8
12722;BME280;6425;50.316;8.114;2023-07-13T07:30:00;991;;;19.1;51
12722;BME280;6425;50.316;8.114;2023-07-13T07:33:00;991;;;19.2;49.7
12722;BME280;6425;50.316;8.114;2023-07-13T07:36:00;991;;;19;50.6
12722;BME280;6425;50.316;8.114;2023-07-13T07:39:00;991;;;19.1;50.3
12722;BME280;6425;50.316;8.114;2023-07-13T07:42:00;991;;;19;49.8
12722;BME280;6425;50.316;8.114;2023-07-13T07:45:00;991;;;19.2;49.4
12722;BME280;6425;50.316;8.114;2023-07-13T07:48:00;991;;;19.3;49.1
12722;BME280;6425;50.316;8.114;2023-07-13T07:51:00;991;;;19.1;48.5
12722;BME280;6425;50.316;8.114;2023-07-13T07:54:00;991;;;19.2;49.2
12722;BME280;6425;50.316;8.114;2023-07-13T07:57:00;991;;;19;48.5
12722;BME280;6425;50.316;8.114;2023-07-13T08:00:00;991;;;18.9;49
12722;BME280;6425;50.316;8.114;2023-07-13T08:03:00;991;;;19;49.3
12722;BME280;6425;50.316;8.114;2023-07-13T08:06:00;991;;;19;48.4
12722;BME280;6425;50.316;8.114;2023-07-13T08:09:00;991;;;19.3;48.6
12722;BME280;6425;50.316;8.114;2023-07-13T08:12:00;991;;;19.2;48.3
12722;BME280;6425;50.316;8.114;2023-07-13T08:15:00;991;;;19.3;48.4
12722;BME280;6425;50.316;8.114;2023-07-13T08:18:00;991;;;19.6;47.9
12722;BME280;6425;50.316;8.114;2023-07-13T08:21:02;991;;;19.9;47.1
12722;BME280;6425;50.316;8.114;2023-07-13T08:24:00;991;;;20;47
12722;BME280;6425;50.316;8.114;2023-07-13T08:27:00;991;;;19.7;47
12722;BME280;6425;50.316;8.114;2023-07-13T08:30:00;991;;;20.1;46.8
12722;BME280;6425;50.316;8.114;2023-07-13T08:33:00;991;;;20.1;45.9
12722;BME280;6425;50.316;8.114;2023-07-13T08:36:00;991;;;20.1;46.6
12722;BME280;6425;50.316;8.114;2023-07-13T08:39:00;991;;;20.4;46.1
12722;BME280;6425;50.316;8.114;2023-07-13T08:42:00;991;;;20.3;44.9
12722;BME280;6425;50.316;8.114;2023-07-13T08:45:04;991;;;20.1;44.9
12722;BME280;6425;50.316;8.114;2023-07-13T08:48:01;991;;;20.3;45.1
12722;BME280;6425;50.316;8.114;2023-07-13T08:51:02;991;;;20.7;44.3
12722;BME280;6425;50.316;8.114;2023-07-13T08:54:01;991;;;21;43.4
12722;BME280;6425;50.316;8.114;2023-07-13T08:57:00;991;;;21;43
12722;BME280;6425;50.316;8.114;2023-07-13T09:00:00;991;;;20.9;43.3
12722;BME280;6425;50.316;8.114;2023-07-13T09:03:00;991;;;20.7;43.6
12722;BME280;6425;50.316;8.114;2023-07-13T09:06:00;991;;;20.7;44.3
12722;BME280;6425;50.316;8.114;2023-07-13T09:09:01;991;;;20.4;44.9
12722;BME280;6425;50.316;8.114;2023-07-13T09:12:01;991;;;20.8;43.9
12722;BME280;6425;50.316;8.114;2023-07-13T09:15:00;991;;;21.3;43.4
12722;BME280;6425;50.316;8.114;2023-07-13T09:18:01;991;;;21.2;42.7
12722;BME280;6425;50.316;8.114;2023-07-13T09:21:02;991;;;20.9;43
12722;BME280;6425;50.316;8.114;2023-07-13T09:24:01;991;;;21.1;42.5
12722;BME280;6425;50.316;8.114;2023-07-13T09:27:00;991;;;21.1;43
12722;BME280;6425;50.316;8.114;2023-07-13T09:30:02;991;;;21.2;42.6
12722;BME280;6425;50.316;8.114;2023-07-13T09:33:00;991;;;21.3;42.9
12722;BME280;6425;50.316;8.114;2023-07-13T09:36:00;991;;;21.3;43.4
12722;BME280;6425;50.316;8.114;2023-07-13T09:39:02;991;;;21.8;42.9
12722;BME280;6425;50.316;8.114;2023-07-13T09:42:01;991;;;21.4;43.4
12722;BME280;6425;50.316;8.114;2023-07-13T09:45:00;991;;;21.5;42.9
12722;BME280;6425;50.316;8.114;2023-07-13T09:48:03;991;;;21.6;42.9
12722;BME280;6425;50.316;8.114;2023-07-13T09:51:01;991;;;21.3;43.2
12722;BME280;6425;50.316;8.114;2023-07-13T09:54:00;991;;;21.4;43.9
12722;BME280;6425;50.316;8.114;2023-07-13T09:57:00;991;;;21.7;42.9
12722;BME280;6425;50.316;8.114;2023-07-13T10:00:00;991;;;22;42.7
12722;BME280;6425;50.316;8.114;2023-07-13T10:03:01;991;;;22;42.7
12722;BME280;6425;50.316;8.114;2023-07-13T10:06:01;991;;;21.9;42.7
12722;BME280;6425;50.316;8.114;2023-07-13T10:09:00;991;;;22;42.1
12722;BME280;6425;50.316;8.114;2023-07-13T10:12:00;991;;;22.6;42
12722;BME280;6425;50.316;8.114;2023-07-13T10:15:00;991;;;22.5;40.1
12722;BME280;6425;50.316;8.114;2023-07-13T10:18:00;991;;;22.5;41.3
12722;BME280;6425;50.316;8.114;2023-07-13T10:21:07;991;;;22.1;41
12722;BME280;6425;50.316;8.114;2023-07-13T10:24:02;991;;;21.9;41.9
12722;BME280;6425;50.316;8.114;2023-07-13T10:27:01;991;;;22;41.5
12722;BME280;6425;50.316;8.114;2023-07-13T10:30:02;991;;;21.9;41.2
12722;BME280;6425;50.316;8.114;2023-07-13T10:33:00;991;;;21.9;41.2
12722;BME280;6425;50.316;8.114;2023-07-13T10:36:01;991;;;21.7;42.3
12722;BME280;6425;50.316;8.114;2023-07-13T10:39:01;991;;;21.6;42.4
12722;BME280;6425;50.316;8.114;2023-07-13T10:42:00;991;;;22.5;41.7
12722;BME280;6425;50.316;8.114;2023-07-13T10:45:00;991;;;22.4;42.3
12722;BME280;6425;50.316;8.114;2023-07-13T10:48:00;991;;;22.5;41.3
12722;BME280;6425;50.316;8.114;2023-07-13T10:51:00;991;;;22.8;40.1
12722;BME280;6425;50.316;8.114;2023-07-13T10:54:32;991;;;23.2;40.3
12722;BME280;6425;50.316;8.114;2023-07-13T10:57:08;991;;;23.1;39.7
12722;BME280;6425;50.316;8.114;2023-07-13T11:00:16;991;;;22.8;40.1
12722;BME280;6425;50.316;8.114;2023-07-13T11:03:00;991;;;23.2;40.7
12722;BME280;6425;50.316;8.114;2023-07-13T11:06:04;991;;;23.7;39
12722;BME280;6425;50.316;8.114;2023-07-13T11:09:03;991;;;23.1;38.9
12722;BME280;6425;50.316;8.114;2023-07-13T11:12:00;991;;;22.6;39.4
12722;BME280;6425;50.316;8.114;2023-07-13T11:15:01;991;;;22.3;39.8
12722;BME280;6425;50.316;8.114;2023-07-13T11:18:02;991;;;22.5;40.3
12722;BME280;6425;50.316;8.114;2023-07-13T11:21:12;991;;;22.6;39.6
12722;BME280;6425;50.316;8.114;2023-07-13T11:24:01;991;;;22.2;40.7
12722;BME280;6425;50.316;8.114;2023-07-13T11:27:00;991;;;22.4;40.9
12722;BME280;6425;50.316;8.114;2023-07-13T11:30:32;991;;;22.2;40.6
12722;BME280;6425;50.316;8.114;2023-07-13T11:33:04;991;;;22.2;40.4
12722;BME280;6425;50.316;8.114;2023-07-13T11:36:02;991;;;22.5;40.4
12722;BME280;6425;50.316;8.114;2023-07-13T11:39:01;991;;;22.1;41.3
12722;BME280;6425;50.316;8.114;2023-07-13T11:42:00;991;;;21.8;40
12722;BME280;6425;50.316;8.114;2023-07-13T11:45:00;991;;;21.8;41.5
12722;BME280;6425;50.316;8.114;2023-07-13T11:48:00;991;;;21.8;42.1
12722;BME280;6425;50.316;8.114;2023-07-13T11:51:00;991;;;22;42.2
12722;BME280;6425;50.316;8.114;2023-07-13T11:57:01;991;;;22.2;41.3
12722;BME280;6425;50.316;8.114;2023-07-13T12:00:01;991;;;22.3;41.1
12722;BME280;6425;50.316;8.114;2023-07-13T12:03:00;991;;;22.2;41.8
12722;BME280;6425;50.316;8.114;2023-07-13T12:06:01;991;;;22.3;41.3
12722;BME280;6425;50.316;8.114;2023-07-13T12:09:00;991;;;22.4;41.1
12722;BME280;6425;50.316;8.114;2023-07-13T12:12:00;991;;;22.2;39.8
12722;BME280;6425;50.316;8.114;2023-07-13T12:15:00;991;;;22.3;40.4
12722;BME280;6425;50.316;8.114;2023-07-13T12:18:00;991;;;22.4;40.1
12722;BME280;6425;50.316;8.114;2023-07-13T12:21:00;991;;;22.2;39.4
12722;BME280;6425;50.316;8.114;2023-07-13T12:24:00;991;;;22.3;40.2
12722;BME280;6425;50.316;8.114;2023-07-13T12:27:00;991;;;22.4;39.4
12722;BME280;6425;50.316;8.114;2023-07-13T12:30:00;991;;;22.3;39.5
12722;BME280;6425;50.316;8.114;2023-07-13T12:33:01;991;;;22.3;39.9
12722;BME280;6425;50.316;8.114;2023-07-13T12:36:00;991;;;22.3;41
12722;BME280;6425;50.316;8.114;2023-07-13T12:39:00;991;;;22.3;40.7
12722;BME280;6425;50.316;8.114;2023-07-13T12:42:10;991;;;22.6;40.6
12722;BME280;6425;50.316;8.114;2023-07-13T12:45:01;991;;;22.4;41
12722;BME280;6425;50.316;8.114;2023-07-13T12:48:03;992;;;22.5;40.1
12722;BME280;6425;50.316;8.114;2023-07-13T12:51:00;992;;;22.2;40.5
12722;BME280;6425;50.316;8.114;2023-07-13T12:54:06;991;;;22.1;40.9
12722;BME280;6425;50.316;8.114;2023-07-13T12:57:00;992;;;22.1;40.8
12722;BME280;6425;50.316;8.114;2023-07-13T13:00:00;992;;;22.1;40.2
12722;BME280;6425;50.316;8.114;2023-07-13T13:03:02;992;;;22;41
12722;BME280;6425;50.316;8.114;2023-07-13T13:06:00;992;;;22.2;40.9
12722;BME280;6425;50.316;8.114;2023-07-13T13:09:00;992;;;22.3;40.4
12722;BME280;6425;50.316;8.114;2023-07-13T13:12:00;991;;;22.2;40.2
12722;BME280;6425;50.316;8.114;2023-07-13T13:15:00;992;;;22.2;40.8
12722;BME280;6425;50.316;8.114;2023-07-13T13:18:00;992;;;22.1;40.8
12722;BME280;6425;50.316;8.114;2023-07-13T13:21:00;992;;;22.4;41
12722;BME280;6425;50.316;8.114;2023-07-13T13:24:00;992;;;22.3;41.1
12722;BME280;6425;50.316;8.114;2023-07-13T13:27:00;992;;;22.5;40.5
12722;BME280;6425;50.316;8.114;2023-07-13T13:30:00;992;;;22.4;40.7
12722;BME280;6425;50.316;8.114;2023-07-13T13:33:00;992;;;22.2;41.2
12722;BME280;6425;50.316;8.114;2023-07-13T13:36:00;992;;;22.2;41
12722;BME280;6425;50.316;8.114;2023-07-13T13:39:00;992;;;22;40.9
12722;BME280;6425;50.316;8.114;2023-07-13T13:42:00;992;;;21.9;40.8
12722;BME280;6425;50.316;8.114;2023-07-13T13:45:00;992;;;21.8;40.3
12722;BME280;6425;50.316;8.114;2023-07-13T13:48:00;992;;;21.9;40.6
12722;BME280;6425;50.316;8.114;2023-07-13T13:51:00;992;;;22.2;40.3
12722;BME280;6425;50.316;8.114;2023-07-13T13:54:00;992;;;22.3;40
12722;BME280;6425;50.316;8.114;2023-07-13T13:57:00;992;;;22.2;40.2
12722;BME280;6425;50.316;8.114;2023-07-13T14:00:00;992;;;22.1;40.3
12722;BME280;6425;50.316;8.114;2023-07-13T14:03:00;992;;;22.1;40.8
12722;BME280;6425;50.316;8.114;2023-07-13T14:06:00;992;;;22.3;39.9
12722;BME280;6425;50.316;8.114;2023-07-13T14:09:00;992;;;22.3;39.6
12722;BME280;6425;50.316;8.114;2023-07-13T14:12:00;992;;;22.2;39.6
12722;BME280;6425;50.316;8.114;2023-07-13T14:15:00;992;;;22.4;39
12722;BME280;6425;50.316;8.114;2023-07-13T14:18:00;992;;;22.2;39.8
12722;BME280;6425;50.316;8.114;2023-07-13T14:21:00;992;;;22.4;39.2
12722;BME280;6425;50.316;8.114;2023-07-13T14:24:00;992;;;22.7;39.2
12722;BME280;6425;50.316;8.114;2023-07-13T14:27:00;992;;;22.6;39.1
12722;BME280;6425;50.316;8.114;2023-07-13T14:30:00;992;;;22.5;39
12722;BME280;6425;50.316;8.114;2023-07-13T14:33:00;992;;;22.4;39.9
12722;BME280;6425;50.316;8.114;2023-07-13T14:36:00;992;;;22.2;39.9
12722;BME280;6425;50.316;8.114;2023-07-13T14:39:01;992;;;22.3;39.5
12722;BME280;6425;50.316;8.114;2023-07-13T14:42:00;992;;;22.1;38.9
12722;BME280;6425;50.316;8.114;2023-07-13T14:45:00;992;;;22.2;38.6
12722;BME280;6425;50.316;8.114;2023-07-13T14:48:00;992;;;22.3;38.5
12722;BME280;6425;50.316;8.114;2023-07-13T14:51:00;992;;;22.2;39.1
12722;BME280;6425;50.316;8.114;2023-07-13T14:54:01;992;;;22.4;37.8
12722;BME280;6425;50.316;8.114;2023-07-13T14:57:00;992;;;22.2;38
12722;BME280;6425;50.316;8.114;2023-07-13T15:00:00;992;;;22.2;38.3
12722;BME280;6425;50.316;8.114;2023-07-13T15:03:00;992;;;22.3;38.3
12722;BME280;6425;50.316;8.114;2023-07-13T15:06:00;992;;;22.1;38.6
12722;BME280;6425;50.316;8.114;2023-07-13T15:09:00;992;;;22.2;39.1
12722;BME280;6425;50.316;8.114;2023-07-13T15:12:00;992;;;22.3;38.2
12722;BME280;6425;50.316;8.114;2023-07-13T15:15:00;992;;;22.3;38.6
12722;BME280;6425;50.316;8.114;2023-07-13T15:18:00;992;;;22.5;38.4
12722;BME280;6425;50.316;8.114;2023-07-13T15:21:00;992;;;22.4;39
12722;BME280;6425;50.316;8.114;2023-07-13T15:24:00;992;;;22.1;38.8
12722;BME280;6425;50.316;8.114;2023-07-13T15:27:00;992;;;22.2;39.3
12722;BME280;6425;50.316;8.114;2023-07-13T15:30:00;992;;;22.2;39.8
12722;BME280;6425;50.316;8.114;2023-07-13T15:33:13;992;;;22.5;39
12722;BME280;6425;50.316;8.114;2023-07-13T15:36:00;992;;;22.6;38.5
12722;BME280;6425;50.316;8.114;2023-07-13T15:39:00;992;;;22.6;38.8
12722;BME280;6425;50.316;8.114;2023-07-13T15:42:00;992;;;22.5;39.4
12722;BME280;6425;50.316;8.114;2023-07-13T15:45:00;992;;;22.6;39.7
12722;BME280;6425;50.316;8.114;2023-07-13T15:48:00;992;;;22.2;39.7
12722;BME280;6425;50.316;8.114;2023-07-13T15:51:01;992;;;22.4;39.8
12722;BME280;6425;50.316;8.114;2023-07-13T15:54:00;992;;;22.7;39
12722;BME280;6425;50.316;8.114;2023-07-13T15:57:00;992;;;23.3;38.2
12722;BME280;6425;50.316;8.114;2023-07-13T16:00:00;992;;;23.5;38.1
12722;BME280;6425;50.316;8.114;2023-07-13T16:03:00;992;;;23.7;37.2
12722;BME280;6425;50.316;8.114;2023-07-13T16:06:00;992;;;23.2;38.6
12722;BME280;6425;50.316;8.114;2023-07-13T16:09:00;991;;;23.4;37.5
12722;BME280;6425;50.316;8.114;2023-07-13T16:12:00;991;;;22.9;38.1
12722;BME280;6425;50.316;8.114;2023-07-13T16:15:00;991;;;23.1;37
12722;BME280;6425;50.316;8.114;2023-07-13T16:18:00;991;;;23;37.7
12722;BME280;6425;50.316;8.114;2023-07-13T16:21:00;991;;;22.9;38.2
12722;BME280;6425;50.316;8.114;2023-07-13T16:24:00;991;;;22.9;37.5
12722;BME280;6425;50.316;8.114;2023-07-13T16:27:00;991;;;22.9;37.8
12722;BME280;6425;50.316;8.114;2023-07-13T16:30:00;991;;;23;37.7
12722;BME280;6425;50.316;8.114;2023-07-13T16:33:00;991;;;23.4;36.8
12722;BME280;6425;50.316;8.114;2023-07-13T16:36:00;991;;;23.5;36.7
12722;BME280;6425;50.316;8.114;2023-07-13T16:39:00;991;;;23.1;36.6
12722;BME280;6425;50.316;8.114;2023-07-13T16:42:01;991;;;23;36.7
12722;BME280;6425;50.316;8.114;2023-07-13T16:45:00;991;;;23;36.9
12722;BME280;6425;50.316;8.114;2023-07-13T16:48:00;991;;;23;36.9
12722;BME280;6425;50.316;8.114;2023-07-13T16:51:00;991;;;23.1;37.1
12722;BME280;6425;50.316;8.114;2023-07-13T16:54:00;991;;;23.2;37
12722;BME280;6425;50.316;8.114;2023-07-13T16:57:00;991;;;23.2;37.2
12722;BME280;6425;50.316;8.114;2023-07-13T17:00:00;991;;;23.2;37.5
12722;BME280;6425;50.316;8.114;2023-07-13T17:03:01;992;;;23.1;38.2
12722;BME280;6425;50.316;8.114;2023-07-13T17:06:00;991;;;22.7;38.5
12722;BME280;6425;50.316;8.114;2023-07-13T17:09:00;992;;;22.6;39.1
12722;BME280;6425;50.316;8.114;2023-07-13T17:12:00;991;;;22.6;38.7
12722;BME280;6425;50.316;8.114;2023-07-13T17:15:00;991;;;22.4;38.5
12722;BME280;6425;50.316;8.114;2023-07-13T17:18:00;991;;;22.4;39.6
12722;BME280;6425;50.316;8.114;2023-07-13T17:21:00;991;;;22.4;38.6
12722;BME280;6425;50.316;8.114;2023-07-13T17:24:00;991;;;22.5;38.7
12722;BME280;6425;50.316;8.114;2023-07-13T17:27:00;991;;;22.6;38.7
12722;BME280;6425;50.316;8.114;2023-07-13T17:30:00;991;;;22.7;38.8
12722;BME280;6425;50.316;8.114;2023-07-13T17:33:00;992;;;22.4;38.6
12722;BME280;6425;50.316;8.114;2023-07-13T17:36:00;991;;;22.2;38.9
12722;BME280;6425;50.316;8.114;2023-07-13T17:39:00;992;;;22.2;39.7
12722;BME280;6425;50.316;8.114;2023-07-13T17:42:00;991;;;22;39.5
12722;BME280;6425;50.316;8.114;2023-07-13T17:45:00;992;;;22.1;40.3
12722;BME280;6425;50.316;8.114;2023-07-13T17:48:00;991;;;22.2;39.9
12722;BME280;6425;50.316;8.114;2023-07-13T17:51:00;991;;;22.2;39.7
12722;BME280;6425;50.316;8.114;2023-07-13T17:54:00;992;;;22.2;40
12722;BME280;6425;50.316;8.114;2023-07-13T17:57:00;992;;;22.2;40.1